Terminal Aerodrome Forecast
Issued by NWS

Home | Current Version | Previous Version | Text Only | Print | Product List | Glossary On
Versions: 1 2 3 4 5 6 7 8 9 10 11 12 13 14 15 16 17 18 19 20 21 22 23 24 25 26 27 28 29
000
FTUS46 KMTR 081140
TAFSFO
TAF
KSFO 081140Z 0812/0918 09010KT 4SM -SHRA BR SCT005 BKN007 OVC010
      WS020/21030KT
     FM081400 11011KT 4SM -SHRA BR BKN004 OVC006
     FM081800 13010KT 4SM -SHRA BR SCT005 BKN008 OVC012
     FM082200 16007KT 6SM BR VCSH SCT008 BKN012 OVC015
     FM090300 18006KT 5SM BR VCSH BKN008 OVC011
     FM091400 15004KT 5SM -SHRA BR BKN007 OVC010=

USA.gov is the U.S. government's official web portal to all federal, state and local government web resources and services.